Time;durP1;ratioP1;P1;durP2;ratioP2;P2;SDS_P1;SDS_P2;PMS_P1;PMS_P2;Temp;Humidity;BMP_temperature;BMP_pressure;BME280_temperature;BME280_humidity;BME280_pressure;Samples;Min_cycle;Max_cycle;Signal;HPM_P1;HPM_P2
2023/08/16 00:03:47;;;;;;;12.80;9.10;;;;;;;20.37;100.00;99286.42;270648;1266;22555;-83
2023/08/16 00:09:50;;;;;;;11.90;7.70;;;;;;;20.29;100.00;99288.69;272209;1266;25362;-84
2023/08/16 00:16:13;;;;;;;14.90;10.50;;;;;;;20.11;100.00;99289.15;270368;1266;22564;-83
2023/08/16 00:22:18;;;;;;;12.40;9.60;;;;;;;19.99;100.00;99297.74;272955;1267;22362;-83
2023/08/16 00:28:21;;;;;;;14.80;9.50;;;;;;;19.98;100.00;99303.08;273462;1266;22195;-82
2023/08/16 00:34:23;;;;;;;10.80;8.80;;;;;;;19.92;100.00;99307.66;273408;1266;22221;-83
2023/08/16 00:40:25;;;;;;;11.80;9.50;;;;;;;19.85;100.00;99308.92;273682;1257;22317;-83
2023/08/16 00:46:27;;;;;;;10.10;9.10;;;;;;;19.77;100.00;99309.34;273618;1267;22219;-83
2023/08/16 00:52:51;;;;;;;9.30;8.30;;;;;;;19.61;100.00;99306.58;273985;1267;22218;-83
2023/08/16 00:58:53;;;;;;;14.90;9.40;;;;;;;19.50;100.00;99303.69;273406;1267;22361;-83
2023/08/16 01:05:15;;;;;;;12.10;9.10;;;;;;;19.44;100.00;99288.27;273490;1266;22307;-83
2023/08/16 01:11:24;;;;;;;11.50;9.20;;;;;;;19.36;100.00;99298.19;273399;1267;22356;-83
2023/08/16 01:17:27;;;;;;;13.30;9.70;;;;;;;19.33;100.00;99302.30;273560;1267;22415;-83
2023/08/16 01:24:11;;;;;;;13.30;9.70;;;;;;;19.38;100.00;99294.17;273365;1266;22533;-83
2023/08/16 01:30:14;;;;;;;12.90;9.10;;;;;;;19.40;100.00;99298.27;272048;1267;22661;-83
2023/08/16 01:36:15;;;;;;;9.60;8.70;;;;;;;19.34;100.00;99303.46;273053;1268;22304;-84
2023/08/16 01:42:59;;;;;;;12.40;8.30;;;;;;;19.20;100.00;99297.45;272275;1260;22540;-83
2023/08/16 01:49:07;;;;;;;10.00;9.00;;;;;;;19.09;100.00;99291.32;271244;1267;22342;-82
2023/08/16 01:55:08;;;;;;;11.50;10.10;;;;;;;18.97;100.00;99292.08;270852;1263;23590;-84
2023/08/16 02:01:10;;;;;;;11.00;9.00;;;;;;;18.91;100.00;99301.38;270329;1266;22635;-82
2023/08/16 02:07:15;;;;;;;11.30;9.20;;;;;;;18.91;100.00;99304.33;271148;1267;23091;-83
2023/08/16 02:13:17;;;;;;;15.50;9.70;;;;;;;18.92;100.00;99302.79;267383;1256;5548978;-83
2023/08/16 02:19:19;;;;;;;10.00;9.00;;;;;;;18.84;100.00;99296.04;273657;1267;22219;-83
2023/08/16 02:25:24;;;;;;;11.00;9.20;;;;;;;18.86;100.00;99292.52;272356;1267;23876;-83
2023/08/16 02:31:26;;;;;;;11.30;8.40;;;;;;;18.96;100.00;99292.02;271565;1266;22354;-83
2023/08/16 02:37:30;;;;;;;12.70;9.10;;;;;;;19.03;100.00;99293.94;270448;1267;22633;-83
2023/08/16 02:43:32;;;;;;;13.60;9.70;;;;;;;19.08;100.00;99289.56;270423;1266;22320;-83
2023/08/16 02:49:36;;;;;;;10.10;9.10;;;;;;;19.07;100.00;99294.03;270783;1267;22874;-82
2023/08/16 02:56:18;;;;;;;12.10;9.40;;;;;;;19.03;100.00;99298.78;270581;1267;22552;-82
2023/08/16 03:02:44;;;;;;;11.10;8.20;;;;;;;19.04;100.00;99297.35;272109;1267;23116;-83
2023/08/16 03:08:46;;;;;;;10.30;8.90;;;;;;;19.12;100.00;99295.61;272206;1267;23861;-83
2023/08/16 03:14:59;;;;;;;10.60;8.50;;;;;;;19.12;100.00;99296.80;272179;1267;22202;-84
2023/08/16 03:21:00;;;;;;;10.50;8.20;;;;;;;19.14;100.00;99303.74;273642;1266;22219;-84
2023/08/16 03:27:23;;;;;;;8.80;7.90;;;;;;;19.12;100.00;99304.79;273651;1269;23140;-83
2023/08/16 03:33:47;;;;;;;11.00;8.10;;;;;;;19.10;100.00;99306.73;273816;1267;22163;-83
2023/08/16 03:40:10;;;;;;;9.50;8.00;;;;;;;19.08;100.00;99313.67;273703;1267;22174;-83
2023/08/16 03:46:35;;;;;;;10.90;8.60;;;;;;;19.10;100.00;99311.75;273672;1266;22194;-83
2023/08/16 03:52:39;;;;;;;12.70;8.70;;;;;;;18.98;100.00;99311.00;273449;1267;22172;-83
2023/08/16 03:59:02;;;;;;;9.70;8.50;;;;;;;18.85;100.00;99321.84;273849;1267;22235;-83
2023/08/16 04:05:24;;;;;;;11.20;9.30;;;;;;;18.83;100.00;99318.80;272121;1260;23495;-83
2023/08/16 04:11:26;;;;;;;10.50;8.50;;;;;;;18.79;100.00;99315.87;271852;1266;23352;-84
2023/08/16 04:17:30;;;;;;;9.50;8.10;;;;;;;18.78;100.00;99330.84;273668;1263;22202;-83
2023/08/16 04:23:36;;;;;;;10.50;8.70;;;;;;;18.79;100.00;99340.02;273923;1268;22178;-84
2023/08/16 04:29:40;;;;;;;14.00;8.00;;;;;;;18.89;100.00;99339.04;273712;1266;22266;-83
2023/08/16 04:35:42;;;;;;;10.80;8.80;;;;;;;18.96;100.00;99336.00;273988;1270;22250;-83
2023/08/16 04:41:44;;;;;;;13.00;9.80;;;;;;;18.98;100.00;99338.90;273114;1265;22917;-83
2023/08/16 04:48:08;;;;;;;11.90;9.40;;;;;;;19.05;100.00;99344.02;272830;1267;22565;-83
2023/08/16 04:54:10;;;;;;;9.90;8.90;;;;;;;19.19;100.00;99350.09;272499;1267;23447;-83
2023/08/16 05:00:13;;;;;;;12.30;8.50;;;;;;;19.31;100.00;99349.83;272717;1269;22545;-83
2023/08/16 05:06:46;;;;;;;12.20;8.60;;;;;;;19.44;100.00;99344.52;271382;1267;25325;-83
2023/08/16 05:12:48;;;;;;;18.20;9.60;;;;;;;19.57;100.00;99344.42;273404;1266;23396;-83
2023/08/16 05:18:52;;;;;;;12.70;10.90;;;;;;;19.74;100.00;99350.66;273549;1267;22311;-83
2023/08/16 05:24:56;;;;;;;14.10;9.90;;;;;;;19.95;100.00;99353.09;271604;1269;22529;-83
2023/08/16 05:31:10;;;;;;;10.10;9.10;;;;;;;20.15;100.00;99355.84;270749;1266;25307;-82
2023/08/16 05:37:12;;;;;;;12.20;8.40;;;;;;;20.34;100.00;99351.88;273159;1267;22528;-84
2023/08/16 05:43:14;;;;;;;9.20;8.30;;;;;;;20.52;100.00;99351.92;271405;1269;23346;-83
2023/08/16 05:49:16;;;;;;;10.90;7.90;;;;;;;20.77;100.00;99355.79;271539;1267;22647;-83
2023/08/16 05:55:20;;;;;;;14.30;8.10;;;;;;;21.04;100.00;99360.77;273246;1266;23811;-82
2023/08/16 06:01:23;;;;;;;12.80;7.50;;;;;;;21.28;100.00;99359.21;273531;1267;22189;-83
2023/08/16 06:07:28;;;;;;;7.60;6.90;;;;;;;21.50;100.00;99356.69;273247;1267;22195;-83
2023/08/16 06:13:30;;;;;;;7.60;6.40;;;;;;;21.74;100.00;99347.86;273279;1267;22378;-82
2023/08/16 06:19:32;;;;;;;7.80;7.00;;;;;;;21.97;100.00;99346.64;273499;1268;22270;-83
2023/08/16 06:25:34;;;;;;;7.90;7.10;;;;;;;22.23;100.00;99346.66;273593;1266;22384;-83
2023/08/16 06:31:36;;;;;;;9.90;7.40;;;;;;;22.43;100.00;99336.80;271382;1267;23018;-82
2023/08/16 06:38:01;;;;;;;7.90;7.10;;;;;;;22.65;100.00;99328.21;272482;1269;22937;-82
2023/08/16 06:44:24;;;;;;;13.50;8.90;;;;;;;22.89;100.00;99333.80;273604;1267;22179;-83
2023/08/16 06:50:37;;;;;;;13.60;9.00;;;;;;;23.17;100.00;99335.41;273543;1267;22311;-80
2023/08/16 06:56:39;;;;;;;10.60;9.10;;;;;;;23.52;100.00;99344.64;273478;1252;22936;-82
2023/08/16 07:02:41;;;;;;;7.80;7.10;;;;;;;23.75;100.00;99347.58;273524;1269;22244;-82
2023/08/16 07:08:43;;;;;;;9.00;7.30;;;;;;;23.88;100.00;99340.23;273573;1267;22479;-82
2023/08/16 07:14:45;;;;;;;11.80;7.50;;;;;;;24.03;100.00;99336.16;273593;1267;23314;-82
2023/08/16 07:20:46;;;;;;;9.00;7.00;;;;;;;24.20;100.00;99339.91;272660;1266;23103;-82
2023/08/16 07:26:48;;;;;;;10.20;6.90;;;;;;;24.45;100.00;99349.59;271275;1266;22970;-82
2023/08/16 07:32:50;;;;;;;8.60;7.30;;;;;;;24.70;100.00;99352.34;273516;1267;23228;-82
2023/08/16 07:38:52;;;;;;;8.80;7.20;;;;;;;24.94;100.00;99362.25;273567;1267;23042;-83
2023/08/16 07:44:54;;;;;;;11.70;7.70;;;;;;;25.16;100.00;99359.98;273538;1267;23380;-82
2023/08/16 07:50:55;;;;;;;11.60;7.80;;;;;;;25.50;100.00;99358.48;273608;1266;22307;-82
2023/08/16 07:56:57;;;;;;;10.20;8.20;;;;;;;25.96;99.96;99352.29;273574;1266;22223;-82
2023/08/16 08:02:59;;;;;;;15.70;8.50;;;;;;;26.48;98.20;99369.67;273621;1267;22305;-82
2023/08/16 08:09:02;;;;;;;14.20;8.10;;;;;;;26.96;94.02;99382.60;273561;1266;22626;-80
2023/08/16 08:15:04;;;;;;;13.60;8.00;;;;;;;27.41;91.92;99379.77;273615;1266;22350;-82
2023/08/16 08:21:06;;;;;;;15.70;8.50;;;;;;;27.75;89.68;99374.55;273496;1266;22835;-82
2023/08/16 08:27:08;;;;;;;9.20;7.00;;;;;;;27.99;88.36;99374.63;273250;1266;22213;-83
2023/08/16 08:33:09;;;;;;;11.00;6.70;;;;;;;28.17;86.91;99377.05;273486;1266;22644;-82
2023/08/16 08:39:11;;;;;;;8.50;7.00;;;;;;;28.32;85.32;99382.85;273165;1266;22640;-82
2023/08/16 08:45:15;;;;;;;10.20;6.90;;;;;;;28.46;84.35;99386.02;271801;1266;24056;-82
2023/08/16 08:51:17;;;;;;;7.50;6.20;;;;;;;28.53;83.84;99381.75;272226;1266;22240;-82
2023/08/16 08:57:18;;;;;;;8.90;6.30;;;;;;;28.62;81.92;99375.36;271970;1266;22181;-82
2023/08/16 09:03:22;;;;;;;10.20;6.80;;;;;;;28.68;79.69;99366.84;271431;1266;24178;-82
2023/08/16 09:09:24;;;;;;;11.60;6.50;;;;;;;28.86;78.42;99375.67;272200;1266;22382;-82
2023/08/16 09:15:26;;;;;;;9.00;6.20;;;;;;;29.01;76.82;99363.91;271437;1267;22243;-83
2023/08/16 09:21:29;;;;;;;10.50;5.70;;;;;;;29.30;75.54;99345.35;271463;1266;22241;-82
2023/08/16 09:27:34;;;;;;;6.60;5.50;;;;;;;29.85;74.06;99351.63;272184;1267;22542;-82
2023/08/16 09:33:46;;;;;;;9.40;5.80;;;;;;;30.37;72.38;99358.58;271153;1267;22529;-83
2023/08/16 09:39:58;;;;;;;7.40;5.10;;;;;;;30.90;71.18;99363.92;273353;1267;22271;-82
2023/08/16 09:46:03;;;;;;;9.10;5.60;;;;;;;31.46;67.40;99369.84;273401;1267;23431;-82
2023/08/16 09:52:11;;;;;;;9.40;5.50;;;;;;;31.57;65.01;99366.08;273398;1267;22678;-83
2023/08/16 09:58:18;;;;;;;7.10;5.80;;;;;;;31.86;64.78;99355.53;273391;1267;22179;-83
2023/08/16 10:04:22;;;;;;;8.90;5.40;;;;;;;32.13;64.16;99353.23;273393;1266;23141;-83
2023/08/16 10:10:42;;;;;;;6.50;5.40;;;;;;;32.09;63.41;99346.59;273392;1261;22272;-82
2023/08/16 10:16:46;;;;;;;9.00;5.70;;;;;;;32.23;62.08;99339.95;273351;1260;22400;-82
2023/08/16 10:23:00;;;;;;;7.40;5.50;;;;;;;32.07;60.89;99344.36;273171;1268;22323;-83
2023/08/16 10:29:06;;;;;;;7.80;5.20;;;;;;;31.62;61.15;99342.64;273369;1269;22304;-83
2023/08/16 10:35:32;;;;;;;7.50;6.00;;;;;;;31.26;61.86;99342.27;273993;1275;22175;-82
2023/08/16 10:41:40;;;;;;;7.20;5.70;;;;;;;31.10;62.13;99348.70;273436;1269;22899;-83
2023/08/16 10:47:42;;;;;;;8.00;6.00;;;;;;;31.10;61.31;99351.02;273388;1267;22267;-83
2023/08/16 10:53:44;;;;;;;6.90;5.90;;;;;;;31.01;59.98;99350.61;273451;1269;23033;-84
2023/08/16 10:59:47;;;;;;;10.30;5.90;;;;;;;30.64;60.04;99347.35;273479;1268;22957;-83
2023/08/16 11:06:13;;;;;;;6.60;5.90;;;;;;;30.24;61.09;99336.48;273212;1260;22292;-83
2023/08/16 11:12:16;;;;;;;8.80;5.70;;;;;;;30.03;60.93;99333.04;272974;1269;23353;-83
2023/08/16 11:18:45;;;;;;;5.70;5.10;;;;;;;29.92;61.25;99331.86;271629;1269;22283;-83
2023/08/16 11:24:50;;;;;;;10.20;5.90;;;;;;;30.03;61.43;99336.48;271464;1266;22314;-83
2023/08/16 11:31:15;;;;;;;6.20;5.60;;;;;;;30.14;61.26;99337.51;271904;1266;22515;-83
2023/08/16 11:37:19;;;;;;;7.60;5.90;;;;;;;30.32;61.34;99335.19;270132;1267;22333;-82
2023/08/16 11:43:28;;;;;;;6.60;5.90;;;;;;;30.16;60.91;99333.01;273561;1269;22364;-82
2023/08/16 11:49:30;;;;;;;6.60;5.60;;;;;;;30.24;61.51;99326.07;273684;1266;22324;-82
2023/08/16 11:55:33;;;;;;;6.90;6.20;;;;;;;30.32;61.91;99322.24;272667;1267;22215;-83
2023/08/16 12:01:38;;;;;;;8.70;6.40;;;;;;;30.48;61.57;99322.02;271402;1267;22316;-83
2023/08/16 12:08:05;;;;;;;7.60;6.70;;;;;;;30.54;62.43;99323.91;272326;1267;22318;-84
2023/08/16 12:14:16;;;;;;;;;;;;;;;30.64;61.99;99316.38;271960;1267;22534;-83
2023/08/16 12:20:19;;;;;;;7.60;6.80;;;;;;;30.66;61.61;99312.69;273026;1267;22237;-82
2023/08/16 12:26:21;;;;;;;7.70;5.80;;;;;;;30.63;60.28;99315.39;273491;1267;22379;-84
2023/08/16 12:32:26;;;;;;;6.20;5.50;;;;;;;30.58;59.78;99315.91;272487;1266;22808;-84
2023/08/16 12:38:32;;;;;;;8.60;6.40;;;;;;;30.52;59.34;99315.31;271712;1267;22272;-81
2023/08/16 12:44:41;;;;;;;8.50;6.70;;;;;;;30.55;58.40;99320.42;273293;1267;22651;-81
2023/08/16 12:51:23;;;;;;;7.80;5.80;;;;;;;30.65;57.76;99322.70;273496;1266;22239;-81
2023/08/16 12:57:46;;;;;;;6.80;5.50;;;;;;;30.65;55.83;99323.46;273583;1267;22201;-82
2023/08/16 13:03:48;;;;;;;8.20;5.90;;;;;;;30.58;54.60;99327.84;273750;1266;22338;-82
2023/08/16 13:10:30;;;;;;;8.40;5.10;;;;;;;30.52;54.06;99328.27;273383;1267;22143;-81
2023/08/16 13:16:32;;;;;;;6.50;5.50;;;;;;;30.41;54.03;99320.46;273790;1266;22215;-81
2023/08/16 13:23:18;;;;;;;6.80;5.10;;;;;;;30.28;54.75;99319.85;273668;1266;24750;-83
2023/08/16 13:29:23;;;;;;;8.80;6.20;;;;;;;30.04;56.04;99314.73;269964;1266;22550;-83
2023/08/16 13:35:29;;;;;;;11.20;6.60;;;;;;;29.92;56.15;99310.10;269473;1266;22535;-82
2023/08/16 13:41:34;;;;;;;8.30;6.70;;;;;;;29.83;56.78;99313.96;272526;1266;22406;-82
2023/08/16 13:47:36;;;;;;;8.50;5.60;;;;;;;29.70;57.02;99306.02;271294;1267;22664;-82
2023/08/16 13:53:42;;;;;;;6.90;5.80;;;;;;;29.53;57.29;99310.28;272210;1260;22536;-82
2023/08/16 14:00:01;;;;;;;11.10;6.50;;;;;;;29.38;58.18;99301.17;269769;1262;22565;-81
2023/08/16 14:06:03;;;;;;;8.00;5.90;;;;;;;29.13;59.44;99300.55;271113;1267;22213;-81
2023/08/16 14:12:08;;;;;;;9.10;6.90;;;;;;;29.00;60.03;99308.77;271846;1267;286397;-84
2023/08/16 14:18:31;;;;;;;24.10;13.50;;;;;;;28.92;60.70;99308.66;271468;1266;23276;-82
2023/08/16 14:24:41;;;;;;;19.30;13.30;;;;;;;28.85;61.27;99307.79;269867;1267;22543;-82
2023/08/16 14:30:52;;;;;;;14.00;10.90;;;;;;;28.76;61.90;99304.28;270682;1267;22648;-83
2023/08/16 14:37:20;;;;;;;11.90;7.40;;;;;;;28.67;62.34;99294.35;270659;1267;22578;-82
2023/08/16 14:43:33;;;;;;;8.70;6.30;;;;;;;28.60;62.73;99291.64;270118;1267;22513;-83
2023/08/16 14:49:37;;;;;;;10.50;7.10;;;;;;;28.53;63.13;99284.02;271118;1266;22720;-83
2023/08/16 14:55:44;;;;;;;12.60;7.00;;;;;;;28.45;63.65;99277.77;273043;1267;22319;-82
2023/08/16 15:01:51;;;;;;;9.60;7.60;;;;;;;28.40;64.15;99271.39;272877;1260;22950;-82
2023/08/16 15:08:14;;;;;;;;;;;;;;;;;;;;;
2023/08/16 15:14:19;;;;;;;12.20;8.20;;;;;;;28.36;65.31;99262.99;273652;1267;22313;-82
2023/08/16 15:20:54;;;;;;;9.40;8.20;;;;;;;28.35;65.87;99258.72;273659;1267;22216;-81
2023/08/16 15:27:23;;;;;;;14.20;8.50;;;;;;;28.33;66.36;99257.98;273562;1267;22645;-82
2023/08/16 15:33:25;;;;;;;15.60;8.70;;;;;;;28.35;66.65;99258.68;273689;1266;23163;-84
2023/08/16 15:39:27;;;;;;;13.00;7.80;;;;;;;28.33;66.88;99259.35;273591;1266;22371;-83
2023/08/16 15:45:32;;;;;;;10.70;7.50;;;;;;;28.26;66.53;99257.30;273827;1266;22847;-82
2023/08/16 15:51:43;;;;;;;10.60;8.10;;;;;;;28.16;66.32;99251.05;273941;1267;22190;-82
2023/08/16 15:57:47;;;;;;;11.30;8.70;;;;;;;28.05;66.50;99246.73;274225;1266;22274;-82
2023/08/16 16:03:49;;;;;;;17.80;7.90;;;;;;;27.93;66.94;99246.52;272715;1266;22180;-82
2023/08/16 16:10:22;;;;;;;10.30;6.70;;;;;;;27.80;67.12;99246.11;270930;1267;22975;-82
2023/08/16 16:16:45;;;;;;;11.60;7.30;;;;;;;27.66;67.34;99242.39;272533;1267;23025;-82
2023/08/16 16:22:49;;;;;;;9.60;6.20;;;;;;;27.53;67.68;99239.05;271054;1267;22325;-84
2023/08/16 16:29:19;;;;;;;9.40;6.10;;;;;;;27.42;68.00;99242.05;271212;1266;23323;-82
2023/08/16 16:35:36;;;;;;;9.50;6.90;;;;;;;27.30;68.41;99241.09;273800;1267;22879;-84
2023/08/16 16:41:41;;;;;;;14.60;6.90;;;;;;;27.20;68.60;99233.79;273565;1267;22198;-82
2023/08/16 16:47:43;;;;;;;12.50;7.30;;;;;;;27.11;68.97;99232.27;273607;1267;22426;-82
2023/08/16 16:53:45;;;;;;;11.40;7.80;;;;;;;27.02;69.31;99235.21;272636;1267;22660;-82
2023/08/16 16:59:47;;;;;;;10.60;7.10;;;;;;;26.95;69.53;99238.90;272280;1267;22204;-81
2023/08/16 17:05:49;;;;;;;12.80;6.80;;;;;;;26.86;69.88;99240.88;271620;1267;23012;-82
2023/08/16 17:11:51;;;;;;;8.90;6.90;;;;;;;26.80;69.84;99240.17;271556;1266;23019;-82
2023/08/16 17:17:53;;;;;;;9.30;7.30;;;;;;;26.75;70.26;99244.91;272479;1269;22274;-80
2023/08/16 17:23:55;;;;;;;10.50;7.40;;;;;;;26.68;70.55;99246.14;271317;1269;22534;-82
2023/08/16 17:29:57;;;;;;;14.60;8.00;;;;;;;26.60;71.16;99248.13;271778;1257;23020;-82
2023/08/16 17:36:02;;;;;;;11.50;7.00;;;;;;;26.45;71.91;99255.75;271857;1269;22185;-81
2023/08/16 17:42:06;;;;;;;14.00;7.70;;;;;;;26.23;72.59;99258.13;271186;1269;22550;-81
2023/08/16 17:48:08;;;;;;;13.90;8.70;;;;;;;26.05;73.94;99254.42;269730;1269;23038;-81
2023/08/16 17:54:10;;;;;;;14.00;9.10;;;;;;;25.92;74.60;99255.02;272396;1268;22516;-81
2023/08/16 18:00:14;;;;;;;14.90;9.60;;;;;;;25.81;74.93;99260.22;265152;1268;10001689;-82
2023/08/16 18:06:16;;;;;;;15.90;8.90;;;;;;;25.73;75.55;99261.09;272440;1268;22323;-81
2023/08/16 18:12:19;;;;;;;12.30;9.00;;;;;;;25.65;75.96;99265.80;273566;1269;22219;-81
2023/08/16 18:19:11;;;;;;;;;;;;;;;;;;;;;
2023/08/16 18:25:43;;;;;;;11.40;8.50;;;;;;;25.47;77.15;99289.79;272982;1272;22342;-81
2023/08/16 18:31:51;;;;;;;11.80;8.20;;;;;;;25.39;77.49;99297.56;272786;1272;22373;-81
2023/08/16 18:37:53;;;;;;;13.00;9.00;;;;;;;25.30;77.63;99291.21;272899;1270;23184;-81
2023/08/16 18:43:58;;;;;;;11.50;9.30;;;;;;;25.23;78.03;99284.75;272892;1272;22239;-81
2023/08/16 18:50:17;;;;;;;12.20;8.90;;;;;;;25.15;78.38;99292.86;273201;1272;23374;-80
2023/08/16 18:56:19;;;;;;;12.50;9.40;;;;;;;25.07;78.80;99298.55;273677;1269;22245;-81
2023/08/16 19:02:47;;;;;;;12.40;9.20;;;;;;;24.99;79.23;99302.58;273415;1269;22992;-81
2023/08/16 19:08:49;;;;;;;14.00;9.40;;;;;;;24.89;79.65;99301.41;273407;1268;23063;-81
2023/08/16 19:14:53;;;;;;;11.20;9.10;;;;;;;24.77;80.48;99299.52;273867;1266;22266;-81
2023/08/16 19:20:56;;;;;;;11.40;8.50;;;;;;;24.64;80.91;99295.65;273617;1266;22789;-82
2023/08/16 19:27:02;;;;;;;11.50;8.40;;;;;;;24.52;81.26;99301.94;274014;1269;22170;-82
2023/08/16 19:33:04;;;;;;;13.10;9.20;;;;;;;24.42;81.81;99303.77;274004;1269;22272;-81
2023/08/16 19:39:06;;;;;;;14.40;8.80;;;;;;;24.39;82.20;99306.55;273957;1266;22099;-81
2023/08/16 19:45:09;;;;;;;15.00;9.70;;;;;;;24.32;82.63;99308.52;274048;1270;23185;-81
2023/08/16 19:51:14;;;;;;;13.00;8.70;;;;;;;24.24;83.35;99306.73;273674;1266;22190;-82
2023/08/16 19:57:38;;;;;;;11.00;8.70;;;;;;;24.17;83.80;99302.73;274168;1274;22181;-81
2023/08/16 20:03:43;;;;;;;10.50;8.60;;;;;;;24.05;84.85;99305.64;273552;1266;23135;-83
2023/08/16 20:09:45;;;;;;;12.70;9.00;;;;;;;23.98;85.74;99304.40;273981;1266;22174;-81
2023/08/16 20:15:56;;;;;;;10.40;8.40;;;;;;;23.90;85.88;99305.96;273561;1266;22383;-81
2023/08/16 20:22:19;;;;;;;19.00;9.70;;;;;;;23.82;86.90;99301.16;273650;1266;22388;-82
2023/08/16 20:28:21;;;;;;;11.30;9.10;;;;;;;23.73;87.50;99304.94;270625;1266;22556;-82
2023/08/16 20:34:43;;;;;;;15.50;9.70;;;;;;;23.53;88.33;99300.30;270989;1266;22370;-83
2023/08/16 20:40:46;;;;;;;13.80;9.20;;;;;;;23.40;89.28;99292.90;272781;1266;22370;-82
2023/08/16 20:46:47;;;;;;;12.10;9.40;;;;;;;23.34;90.09;99284.26;270803;1267;23947;-81
2023/08/16 20:52:49;;;;;;;13.10;10.70;;;;;;;23.23;90.24;99278.79;271878;1266;23374;-82
2023/08/16 20:58:51;;;;;;;15.00;9.90;;;;;;;23.04;90.24;99281.59;273704;1267;22183;-82
2023/08/16 21:05:09;;;;;;;14.10;9.10;;;;;;;22.97;91.52;99283.99;270246;1266;22572;-81
2023/08/16 21:11:35;;;;;;;12.60;9.60;;;;;;;22.96;91.61;99280.52;271681;1266;22401;-81
2023/08/16 21:17:38;;;;;;;12.90;10.00;;;;;;;22.90;92.05;99275.95;271461;1267;22231;-82
2023/08/16 21:23:42;;;;;;;15.60;9.80;;;;;;;22.91;92.86;99275.36;272088;1266;22656;-82
2023/08/16 21:30:22;;;;;;;11.60;9.00;;;;;;;22.94;92.91;99275.46;273612;1267;23451;-81
2023/08/16 21:36:26;;;;;;;13.10;9.10;;;;;;;22.97;93.22;99279.84;273570;1268;23798;-81
2023/08/16 21:42:49;;;;;;;12.40;8.80;;;;;;;22.97;93.26;99288.97;272644;1266;22203;-81
2023/08/16 21:48:51;;;;;;;9.30;8.30;;;;;;;22.92;92.22;99296.23;272665;1267;23225;-82
2023/08/16 21:54:53;;;;;;;9.50;7.20;;;;;;;22.88;92.37;99302.10;273606;1267;22379;-83
2023/08/16 22:01:15;;;;;;;11.60;8.70;;;;;;;22.78;92.39;99297.17;273670;1266;22342;-81
2023/08/16 22:07:18;;;;;;;11.50;8.90;;;;;;;22.71;92.25;99293.51;273520;1269;22821;-81
2023/08/16 22:13:20;;;;;;;11.00;8.50;;;;;;;22.71;92.18;99295.27;272886;1267;22584;-81
2023/08/16 22:19:44;;;;;;;11.50;8.80;;;;;;;22.77;92.24;99294.02;272120;1267;23333;-81
2023/08/16 22:25:48;;;;;;;11.00;8.70;;;;;;;22.79;92.40;99295.88;271657;1267;22671;-81
2023/08/16 22:32:01;;;;;;;;;;;;;;;;;;;;;
2023/08/16 22:38:27;;;;;;;11.50;8.00;;;;;;;22.67;92.45;99292.54;271940;1269;22217;-81
2023/08/16 22:44:53;;;;;;;9.10;8.20;;;;;;;22.58;92.64;99303.75;273542;1267;22378;-82
2023/08/16 22:51:18;;;;;;;12.00;8.90;;;;;;;22.52;93.12;99304.48;273704;1267;22187;-81
2023/08/16 22:57:28;;;;;;;9.60;8.60;;;;;;;22.52;92.84;99312.64;273654;1267;23503;-81
2023/08/16 23:03:32;;;;;;;9.20;8.00;;;;;;;22.53;93.37;99310.04;273530;1269;22166;-82
2023/08/16 23:09:52;;;;;;;;;;;;;;;;;;;;;
2023/08/16 23:16:14;;;;;;;10.60;7.60;;;;;;;22.42;94.21;99311.15;273909;1267;22989;-81
2023/08/16 23:22:20;;;;;;;10.40;7.50;;;;;;;22.33;94.84;99303.73;273635;1267;22289;-84
2023/08/16 23:28:26;;;;;;;11.70;8.20;;;;;;;22.32;95.06;99301.66;273469;1266;22339;-82
2023/08/16 23:34:49;;;;;;;11.40;7.70;;;;;;;22.29;94.99;99304.23;273898;1273;23032;-81
2023/08/16 23:41:13;;;;;;;11.30;8.80;;;;;;;22.20;95.13;99306.04;273973;1269;22241;-81
2023/08/16 23:47:15;;;;;;;10.10;8.20;;;;;;;22.09;95.18;99314.89;273585;1269;22850;-82
2023/08/16 23:53:17;;;;;;;9.40;8.10;;;;;;;22.00;95.35;99320.52;273514;1269;23434;-81
2023/08/16 23:59:19;;;;;;;11.10;8.70;;;;;;;21.91;95.65;99320.05;273510;1269;22377;-81
